Lihue, HI

2:38 PM HST on December 24, 2014 (GMT -1000)
Lihue | Change Station
CLOSE
Current Station
Airport
Location: Lihue,
Elevation: 102 ft
Nearby Weather Stations
Active Advisory: Flash Flood Watch, High Surf Advisory Active Notice: Record Report

Elev 102 ft 21.98 °N, 159.34 °W | Updated 45 minutes ago

Partly Cloudy
Partly Cloudy
78 °F
Feels Like 78 °F
N
10
Wind Variable Wind from NE

Today
High -- | Low -- °F
--% Chance of Precip.
Yesterday
High -- | Low -- °F
Precip. -- in
7:13 AM 6:01 PM
Waxing Crescent, 12% visible
Pressure 29.78 in
Visibility 10.0 miles
Clouds Few 2600 ft
Dew Point 63 °F
Humidity 60%
Rainfall 0.00 in
Snow Depth Not available.
UV 5 out of 12
Pollen Not available.
Air Quality Not available.
Flu Activity Not available.
METAR PHLI 242353Z 04009KT 10SM FEW026 26/17 A2979 RMK AO2 SLP084 60000 T02560172 10256 20200 58029

More Conditions Fewer Conditions

Pressure 29.78 in
Visibility 10.0 miles
Clouds Few 2600 ft
Dew Point 63 °F
Humidity 60%
Rainfall 0.00 in
Snow Depth Not available.
UV 5 out of 12
Pollen Not available.
Air Quality Not available.
Flu Activity Not available.
METAR PHLI 242353Z 04009KT 10SM FEW026 26/17 A2979 RMK AO2 SLP084 60000 T02560172 10256 20200 58029

More Conditions Fewer Conditions

10-Day Weather Forecast

Almanac

Astronomy

Dec. 24, 2014 Rise Set
Actual Time
Civil Twilight
Nautical Twilight
Astronomical Twilight
Moon
Length of Visible Light
Length of Day
Tomorrow will be .
, % of the Moon is Illuminated

Today's Extremes

State Highs State Lows

Community

WunderPhotos

Upload Photos

1,780,194 photos uploaded!

WunderBlogs® & News

Nearby

Air Quality

  Air Quality AQ Index Pollutant
Not available.

Snow Depth

Station Depth Elevation

Earthquake Activity

City Distance Mag. Time & Date
Minimum magnitude displayed is 2.5.

Coastal Water Temperatures

Place Temperature

Nearby Weather Stations